Time;durP1;ratioP1;P1;durP2;ratioP2;P2;SDS_P1;SDS_P2;PMS_P1;PMS_P2;Temp;Humidity;BMP_temperature;BMP_pressure;BME280_temperature;BME280_humidity;BME280_pressure;Samples;Min_cycle;Max_cycle;Signal;HPM_P1;HPM_P2
2021/10/19 00:02:01;;;;;;;11.83;10.63;;;;;;;9.89;100.00;101115.56;5072627;28;20269;-72
2021/10/19 00:04:26;;;;;;;11.57;10.37;;;;;;;9.88;100.00;101101.13;5090153;28;20205;-72
2021/10/19 00:06:52;;;;;;;11.77;10.57;;;;;;;9.90;100.00;101123.47;5090314;28;20671;-72
2021/10/19 00:09:17;;;;;;;5.50;5.10;;;;;;;9.87;100.00;101120.50;5072392;28;20181;-72
2021/10/19 00:11:43;;;;;;;10.80;9.70;;;;;;;9.83;100.00;101112.06;5072240;28;20178;-72
2021/10/19 00:14:08;;;;;;;10.70;9.60;;;;;;;9.83;100.00;101120.25;5090273;28;20344;-72
2021/10/19 00:16:36;;;;;;;9.50;8.60;;;;;;;9.81;100.00;101127.94;5072921;28;20657;-72
2021/10/19 00:19:04;;;;;;;8.23;6.47;;;;;;;9.77;100.00;101115.97;5090766;28;20240;-73
2021/10/19 00:21:29;;;;;;;7.30;6.60;;;;;;;9.73;100.00;101120.38;5090698;28;20521;-72
2021/10/19 00:23:55;;;;;;;10.17;6.20;;;;;;;9.73;100.00;101107.56;5090274;28;20178;-72
2021/10/19 00:26:20;;;;;;;9.87;6.83;;;;;;;9.74;100.00;101098.28;5072131;28;20216;-72
2021/10/19 00:28:45;;;;;;;4.27;3.93;;;;;;;9.78;100.00;101114.88;5090172;28;20254;-72
2021/10/19 00:31:10;;;;;;;12.77;9.83;;;;;;;9.81;100.00;101111.56;5090149;28;20258;-72
2021/10/19 00:33:36;;;;;;;7.00;6.13;;;;;;;9.83;100.00;101121.06;5092911;28;20256;-73
2021/10/19 00:36:02;;;;;;;11.40;8.87;;;;;;;9.89;100.00;101129.22;5094005;28;20271;-72
2021/10/19 00:38:27;;;;;;;11.13;10.03;;;;;;;9.89;100.00;101137.41;5075567;28;20295;-72
2021/10/19 00:40:52;;;;;;;10.57;9.43;;;;;;;9.84;100.00;101143.75;5093849;28;20243;-73
2021/10/19 00:43:18;;;;;;;12.53;9.93;;;;;;;9.82;100.00;101146.75;5093928;28;20182;-73
2021/10/19 00:45:44;;;;;;;11.87;9.20;;;;;;;9.84;100.00;101144.56;5093991;28;20288;-72
2021/10/19 00:48:14;;;;;;;11.33;10.23;;;;;;;9.72;100.00;101138.69;5075635;28;20182;-73
2021/10/19 00:50:40;;;;;;;12.23;11.03;;;;;;;9.77;100.00;101129.63;5075584;28;20176;-73
2021/10/19 00:53:05;;;;;;;12.27;10.47;;;;;;;9.72;100.00;101113.31;5075563;28;20177;-73
2021/10/19 00:55:31;;;;;;;12.43;11.23;;;;;;;9.71;100.00;101114.41;5089224;28;20204;-73
2021/10/19 00:57:57;;;;;;;12.53;11.00;;;;;;;9.72;100.00;101118.75;5093912;28;20182;-72
2021/10/19 01:00:23;;;;;;;13.83;10.80;;;;;;;9.90;100.00;101119.94;5093998;28;20201;-73
2021/10/19 01:02:48;;;;;;;11.40;10.23;;;;;;;10.06;100.00;101132.31;5093626;28;20261;-73
2021/10/19 01:05:14;;;;;;;11.10;10.00;;;;;;;10.11;100.00;101135.78;5093660;28;20193;-73
2021/10/19 01:07:41;;;;;;;9.93;9.03;;;;;;;10.10;100.00;101130.59;5094203;28;20717;-73
2021/10/19 01:10:07;;;;;;;11.33;10.20;;;;;;;9.96;100.00;101124.22;5093656;28;20252;-73
2021/10/19 01:12:33;;;;;;;14.67;10.10;;;;;;;9.98;100.00;101122.00;5075737;28;20273;-73
2021/10/19 01:14:59;;;;;;;12.67;10.73;;;;;;;9.85;100.00;101112.63;5093600;28;20173;-72
2021/10/19 01:17:24;;;;;;;13.27;10.60;;;;;;;9.85;100.00;101109.91;5093767;28;20170;-73
2021/10/19 01:19:51;;;;;;;12.73;10.90;;;;;;;9.97;100.00;101106.72;5093667;28;20678;-73
2021/10/19 01:22:16;;;;;;;12.43;10.97;;;;;;;9.91;100.00;101105.19;5093609;28;20279;-73
2021/10/19 01:24:43;;;;;;;13.03;11.67;;;;;;;9.91;100.00;101100.53;5093244;28;20718;-73
2021/10/19 01:27:09;;;;;;;11.93;10.73;;;;;;;9.86;100.00;101097.88;5075223;28;20182;-73
2021/10/19 01:29:35;;;;;;;12.57;10.70;;;;;;;9.86;100.00;101088.88;5093250;28;20260;-73
2021/10/19 01:32:01;;;;;;;13.87;11.97;;;;;;;9.84;100.00;101086.44;5093497;28;20261;-73
2021/10/19 01:34:32;;;;;;;12.87;11.57;;;;;;;9.83;100.00;101098.44;5093320;28;20170;-73
2021/10/19 01:36:57;;;;;;;13.57;11.40;;;;;;;9.86;100.00;101097.06;5075318;28;20173;-73
2021/10/19 01:39:23;;;;;;;12.87;11.07;;;;;;;9.90;100.00;101082.53;5093315;28;20174;-73
2021/10/19 01:41:48;;;;;;;12.17;10.87;;;;;;;9.94;100.00;101077.28;5093119;28;20671;-73
2021/10/19 01:44:14;;;;;;;14.57;11.97;;;;;;;9.92;100.00;101074.88;5073998;28;20694;-73
2021/10/19 01:46:39;;;;;;;12.13;10.93;;;;;;;9.94;100.00;101066.38;5093062;28;20166;-73
2021/10/19 01:49:05;;;;;;;11.50;10.20;;;;;;;10.10;100.00;101076.81;5074905;28;20186;-73
2021/10/19 01:51:30;;;;;;;11.73;10.53;;;;;;;10.14;100.00;101060.69;5074786;28;20188;-73
2021/10/19 01:53:56;;;;;;;13.03;11.70;;;;;;;9.92;100.00;101025.72;5092840;28;20618;-73
2021/10/19 01:56:22;;;;;;;13.50;11.27;;;;;;;9.90;100.00;101029.88;5074571;28;20312;-72
2021/10/19 01:58:47;;;;;;;12.43;11.13;;;;;;;10.00;100.00;101048.84;5093012;28;20209;-73
2021/10/19 02:01:13;;;;;;;13.00;11.70;;;;;;;9.95;100.00;101048.91;5074560;28;20213;-73
2021/10/19 02:03:38;;;;;;;14.33;12.30;;;;;;;9.93;100.00;101064.75;5092807;28;20178;-73
2021/10/19 02:06:06;;;;;;;17.30;11.57;;;;;;;9.95;100.00;101060.63;5074293;28;20213;-73
2021/10/19 02:08:32;;;;;;;12.73;11.37;;;;;;;10.00;100.00;101052.38;5092625;28;20177;-73
2021/10/19 02:10:59;;;;;;;13.30;11.90;;;;;;;10.14;100.00;101056.03;5092539;28;20660;-73
2021/10/19 02:13:24;;;;;;;12.20;10.90;;;;;;;10.12;100.00;101051.94;5074371;28;20312;-73
2021/10/19 02:15:49;;;;;;;12.83;10.67;;;;;;;10.18;100.00;101066.34;5092537;28;20248;-73
2021/10/19 02:18:15;;;;;;;18.07;10.90;;;;;;;10.01;100.00;101064.94;5092214;28;20505;-73
2021/10/19 02:20:40;;;;;;;12.80;10.70;;;;;;;10.07;100.00;101066.47;5092403;28;20177;-73
2021/10/19 02:23:06;;;;;;;12.10;10.87;;;;;;;10.30;100.00;101069.50;5092570;28;20169;-73
2021/10/19 02:25:32;;;;;;;11.93;10.73;;;;;;;10.23;100.00;101071.78;5073976;28;20348;-72
2021/10/19 02:27:57;;;;;;;12.13;9.70;;;;;;;10.20;100.00;101078.59;5092466;28;20162;-73
2021/10/19 02:30:24;;;;;;;11.10;9.93;;;;;;;10.28;100.00;101077.19;5074079;28;20165;-73
2021/10/19 02:32:50;;;;;;;17.30;11.17;;;;;;;10.04;100.00;101064.34;5092209;28;20249;-73
2021/10/19 02:35:17;;;;;;;16.57;11.17;;;;;;;10.07;100.00;101058.28;5092035;28;20176;-72
2021/10/19 02:37:44;;;;;;;12.27;10.70;;;;;;;10.20;100.00;101059.50;5092189;28;20181;-73
2021/10/19 02:40:11;;;;;;;12.57;10.90;;;;;;;10.13;100.00;101059.06;5073819;28;20172;-73
2021/10/19 02:42:38;;;;;;;14.93;11.23;;;;;;;10.06;100.00;101067.59;5091896;28;20181;-73
2021/10/19 02:45:06;;;;;;;16.93;12.53;;;;;;;9.97;100.00;101065.78;5091603;28;20200;-73
2021/10/19 02:47:31;;;;;;;12.03;10.73;;;;;;;9.91;100.00;101056.88;5091976;28;20223;-73
2021/10/19 02:49:56;;;;;;;14.17;11.07;;;;;;;9.97;100.00;101043.94;5073725;28;20609;-73
2021/10/19 02:52:22;;;;;;;12.47;9.83;;;;;;;10.21;100.00;101046.66;5073985;28;20534;-73
2021/10/19 02:54:51;;;;;;;11.80;10.60;;;;;;;10.27;100.00;101049.06;5092041;28;20177;-73
2021/10/19 02:57:19;;;;;;;17.97;11.23;;;;;;;10.37;100.00;101061.75;5091906;28;20197;-73
2021/10/19 02:59:45;;;;;;;11.90;10.20;;;;;;;10.35;100.00;101051.13;5091894;28;20577;-73
2021/10/19 03:02:10;;;;;;;15.40;10.37;;;;;;;10.23;100.00;101039.00;5091846;28;20180;-73
2021/10/19 03:04:35;;;;;;;11.77;10.53;;;;;;;10.43;100.00;101052.38;5091438;28;20202;-73
2021/10/19 03:07:01;;;;;;;12.23;9.50;;;;;;;10.45;100.00;101050.16;5091409;28;20725;-73
2021/10/19 03:09:26;;;;;;;18.00;10.90;;;;;;;10.35;100.00;101044.84;5073114;28;20204;-73
2021/10/19 03:11:52;;;;;;;13.67;11.00;;;;;;;10.18;100.00;101044.50;5091604;28;20178;-73
2021/10/19 03:14:17;;;;;;;14.53;11.57;;;;;;;10.08;100.00;101045.44;5073365;28;20621;-73
2021/10/19 03:16:42;;;;;;;10.97;9.87;;;;;;;10.00;100.00;101049.66;5073360;28;20173;-73
2021/10/19 03:19:08;;;;;;;12.93;11.50;;;;;;;9.98;100.00;101046.41;5091607;28;20185;-72
2021/10/19 03:21:33;;;;;;;14.70;10.63;;;;;;;9.99;100.00;101039.84;5073303;28;20266;-73
2021/10/19 03:23:58;;;;;;;14.03;10.67;;;;;;;10.01;100.00;101042.28;5091873;28;20174;-73
2021/10/19 03:26:24;;;;;;;18.27;10.60;;;;;;;9.97;100.00;101042.03;5091364;28;20197;-73
2021/10/19 03:28:49;;;;;;;12.77;10.63;;;;;;;9.96;100.00;101032.22;5073127;28;20584;-73
2021/10/19 03:31:14;;;;;;;11.60;9.63;;;;;;;10.06;100.00;101036.75;5073003;28;20264;-73
2021/10/19 03:33:42;;;;;;;14.93;11.00;;;;;;;10.17;100.00;101037.44;5090443;28;20257;-73
2021/10/19 03:36:09;;;;;;;11.47;9.97;;;;;;;10.19;100.00;101040.69;5090744;28;20239;-73
2021/10/19 03:38:34;;;;;;;12.47;10.37;;;;;;;10.10;100.00;101037.78;5072624;28;20169;-73
2021/10/19 03:41:00;;;;;;;12.13;10.87;;;;;;;10.11;100.00;101045.66;5090783;28;20652;-73
2021/10/19 03:43:25;;;;;;;15.10;10.93;;;;;;;10.30;100.00;101044.94;5090794;28;20162;-73
2021/10/19 03:45:51;;;;;;;11.53;10.40;;;;;;;10.27;100.00;101037.31;5090427;28;20228;-73
2021/10/19 03:48:17;;;;;;;12.27;9.30;;;;;;;10.36;100.00;101028.16;5072700;28;20539;-73
2021/10/19 03:50:43;;;;;;;11.17;10.03;;;;;;;10.30;100.00;101023.06;5090613;28;20613;-73
2021/10/19 03:53:12;;;;;;;14.67;11.07;;;;;;;10.11;100.00;101006.63;5090579;28;20401;-73
2021/10/19 03:55:38;;;;;;;13.63;10.57;;;;;;;10.06;100.00;101014.91;5090505;28;20586;-72
2021/10/19 03:58:03;;;;;;;14.80;10.53;;;;;;;10.02;100.00;101013.88;5090377;28;20201;-73
2021/10/19 04:00:29;;;;;;;12.53;11.23;;;;;;;10.00;100.00;101018.81;5090419;28;20629;-73
2021/10/19 04:02:54;;;;;;;10.93;9.90;;;;;;;10.11;100.00;101023.81;5090692;28;20265;-73
2021/10/19 04:05:20;;;;;;;13.20;10.30;;;;;;;10.26;100.00;101019.28;5090545;28;20198;-73
2021/10/19 04:07:46;;;;;;;13.20;10.63;;;;;;;10.26;100.00;101027.47;5073730;28;20178;-72
2021/10/19 04:10:12;;;;;;;11.10;8.77;;;;;;;10.22;100.00;101024.53;5094567;28;20198;-73
2021/10/19 04:12:38;;;;;;;10.80;9.63;;;;;;;10.40;100.00;101037.38;5094550;28;20176;-73
2021/10/19 04:15:04;;;;;;;11.50;10.07;;;;;;;10.39;100.00;101030.28;5094283;28;20174;-73
2021/10/19 04:17:29;;;;;;;11.27;9.23;;;;;;;10.38;100.00;101025.13;5094546;28;20194;-73
2021/10/19 04:19:55;;;;;;;10.40;9.40;;;;;;;10.41;100.00;101027.25;5094304;28;20205;-73
2021/10/19 04:22:22;;;;;;;11.13;8.77;;;;;;;10.32;100.00;101035.31;5093921;28;20669;-73
2021/10/19 04:24:48;;;;;;;11.60;9.53;;;;;;;10.32;100.00;101031.78;5093888;28;20254;-73
2021/10/19 04:27:14;;;;;;;10.87;9.77;;;;;;;10.37;100.00;101042.63;5094114;28;20178;-73
2021/10/19 04:29:39;;;;;;;10.77;9.63;;;;;;;10.48;100.00;101037.84;5094105;28;20182;-73
2021/10/19 04:32:05;;;;;;;10.57;9.47;;;;;;;10.37;100.00;101029.78;5075937;28;20178;-72
2021/10/19 04:34:30;;;;;;;14.13;11.03;;;;;;;10.41;100.00;101032.72;5093778;28;20166;-73
2021/10/19 04:36:56;;;;;;;11.63;9.47;;;;;;;10.54;100.00;101031.16;5075729;28;20243;-73
2021/10/19 04:39:21;;;;;;;10.17;9.23;;;;;;;10.49;100.00;101026.59;5075701;28;20276;-73
2021/10/19 04:41:46;;;;;;;11.93;10.27;;;;;;;10.50;100.00;101024.69;5075748;28;20224;-73
2021/10/19 04:44:12;;;;;;;12.10;8.97;;;;;;;10.54;100.00;101021.06;5093589;28;20629;-73
2021/10/19 04:46:38;;;;;;;9.50;8.57;;;;;;;10.68;100.00;101029.31;5075709;28;20249;-73
2021/10/19 04:49:04;;;;;;;11.67;8.83;;;;;;;10.86;100.00;101028.50;5092767;28;20201;-72
2021/10/19 04:51:29;;;;;;;10.40;9.20;;;;;;;10.85;100.00;101035.06;5072044;28;20186;-72
2021/10/19 04:53:56;;;;;;;8.23;7.43;;;;;;;10.89;100.00;101029.81;5089892;28;20686;-73
2021/10/19 04:56:21;;;;;;;9.60;8.37;;;;;;;11.07;100.00;101028.94;5075804;28;20714;-72
2021/10/19 04:58:46;;;;;;;11.13;7.40;;;;;;;11.00;100.00;101025.81;5093989;28;20266;-72
2021/10/19 05:01:12;;;;;;;15.00;8.37;;;;;;;11.08;100.00;101036.03;5075786;28;20647;-72
2021/10/19 05:03:40;;;;;;;9.53;8.53;;;;;;;11.02;100.00;101018.91;5075407;28;20213;-72
2021/10/19 05:06:05;;;;;;;9.17;8.27;;;;;;;11.02;100.00;101018.09;5093255;28;20209;-72
2021/10/19 05:08:31;;;;;;;9.03;8.20;;;;;;;10.99;100.00;101015.94;5093534;28;20230;-72
2021/10/19 05:10:56;;;;;;;8.87;7.80;;;;;;;10.96;100.00;101006.44;5093360;28;20223;-72
2021/10/19 05:13:21;;;;;;;9.97;7.83;;;;;;;10.99;100.00;101005.00;5093220;28;20227;-73
2021/10/19 05:15:47;;;;;;;8.83;7.93;;;;;;;10.99;100.00;100999.53;5074812;28;20537;-72
2021/10/19 05:18:12;;;;;;;7.67;6.43;;;;;;;11.06;100.00;100991.78;5092912;28;20620;-72
2021/10/19 05:20:37;;;;;;;5.57;5.00;;;;;;;11.08;100.00;100992.28;5074246;28;20170;-72
2021/10/19 05:23:03;;;;;;;5.70;5.13;;;;;;;11.09;100.00;100982.97;5093142;28;20173;-72
2021/10/19 05:25:28;;;;;;;2.43;2.13;;;;;;;11.10;100.00;100973.66;5074489;28;20403;-72
2021/10/19 05:27:54;;;;;;;7.00;6.27;;;;;;;11.09;100.00;100957.53;5074919;28;20170;-72
2021/10/19 05:30:20;;;;;;;10.63;8.10;;;;;;;11.06;100.00;100947.22;5074783;28;20166;-73
2021/10/19 05:32:45;;;;;;;7.57;5.80;;;;;;;11.06;100.00;100948.03;5092952;28;20174;-72
2021/10/19 05:35:11;;;;;;;8.17;6.97;;;;;;;11.05;100.00;100940.13;5074665;28;20173;-73
2021/10/19 05:37:36;;;;;;;9.80;8.40;;;;;;;11.09;100.00;100935.66;5074651;28;20165;-72
2021/10/19 05:40:06;;;;;;;7.07;6.00;;;;;;;11.13;100.00;100934.75;5074337;28;20177;-73
2021/10/19 05:42:31;;;;;;;8.93;7.40;;;;;;;11.18;100.00;100942.06;5092266;28;20158;-73
2021/10/19 05:44:56;;;;;;;8.13;7.37;;;;;;;11.21;100.00;100942.25;5090355;28;20687;-73
2021/10/19 05:47:22;;;;;;;9.07;8.20;;;;;;;11.24;100.00;100935.38;5082498;28;20265;-74
2021/10/19 05:49:47;;;;;;;11.87;7.33;;;;;;;11.28;100.00;100925.44;5091011;28;20230;-74
2021/10/19 05:52:13;;;;;;;8.10;7.30;;;;;;;11.27;100.00;100934.75;5072165;28;20214;-74
2021/10/19 05:54:38;;;;;;;8.87;6.53;;;;;;;11.28;100.00;100926.28;5070257;28;20583;-73
2021/10/19 05:57:03;;;;;;;8.53;7.63;;;;;;;11.25;100.00;100932.31;5085246;28;20593;-73
2021/10/19 05:59:29;;;;;;;11.00;7.57;;;;;;;11.25;100.00;100915.91;5090171;28;20189;-73
2021/10/19 06:01:55;;;;;;;6.13;5.53;;;;;;;11.26;100.00;100950.34;5094610;28;20170;-73
2021/10/19 06:04:21;;;;;;;6.33;4.70;;;;;;;11.25;100.00;100931.53;5092903;28;20173;-73
2021/10/19 06:06:55;;;;;;;8.77;5.03;;;;;;;11.24;100.00;100935.38;5073665;28;20262;-72
2021/10/19 06:09:20;;;;;;;8.40;7.40;;;;;;;11.20;100.00;100931.63;5092226;28;20166;-72
2021/10/19 06:11:46;;;;;;;8.30;6.43;;;;;;;11.19;100.00;100911.69;5074214;28;20170;-72
2021/10/19 06:14:11;;;;;;;7.30;5.93;;;;;;;11.17;100.00;100907.63;5074109;28;20177;-73
2021/10/19 06:16:36;;;;;;;11.33;8.57;;;;;;;11.13;100.00;100915.59;5073884;28;20245;-72
2021/10/19 06:19:02;;;;;;;2.13;2.00;;;;;;;11.12;100.00;100907.72;5073995;28;20177;-72
2021/10/19 06:21:27;;;;;;;7.83;7.10;;;;;;;11.10;100.00;100915.41;5074152;28;20636;-72
2021/10/19 06:23:53;;;;;;;11.50;8.60;;;;;;;11.09;100.00;100914.59;5092168;28;20166;-72
2021/10/19 06:26:18;;;;;;;5.30;4.83;;;;;;;11.03;100.00;100913.91;5074313;28;20198;-72
2021/10/19 06:28:43;;;;;;;11.70;7.90;;;;;;;11.02;100.00;100916.94;5092177;28;20170;-72
2021/10/19 06:31:09;;;;;;;9.40;8.50;;;;;;;10.99;100.00;100912.91;5091514;28;20234;-72
2021/10/19 06:33:36;;;;;;;5.40;4.90;;;;;;;10.99;100.00;100918.34;5091897;28;20460;-74
2021/10/19 06:36:03;;;;;;;11.67;9.50;;;;;;;10.97;100.00;100919.75;5091875;28;20239;-73
2021/10/19 06:38:28;;;;;;;6.50;5.77;;;;;;;11.01;100.00;100934.47;5073762;28;20174;-73
2021/10/19 06:40:54;;;;;;;12.43;9.20;;;;;;;11.00;100.00;100941.03;5092126;28;20505;-73
2021/10/19 06:43:19;;;;;;;10.93;9.43;;;;;;;11.05;100.00;100937.41;5091776;28;20534;-74
2021/10/19 06:45:44;;;;;;;10.73;9.10;;;;;;;11.10;100.00;100940.84;5073245;28;20302;-74
2021/10/19 06:48:10;;;;;;;9.10;8.20;;;;;;;11.16;100.00;100950.56;5091600;28;20166;-73
2021/10/19 06:50:36;;;;;;;9.07;7.90;;;;;;;11.14;100.00;100941.03;5073383;28;20181;-74
2021/10/19 06:53:02;;;;;;;7.30;6.40;;;;;;;11.22;100.00;100946.63;5091137;28;20238;-73
2021/10/19 06:55:27;;;;;;;6.83;6.00;;;;;;;11.24;100.00;100936.19;5069837;28;20178;-74
2021/10/19 06:57:53;;;;;;;11.03;9.50;;;;;;;11.27;100.00;100943.78;5087182;28;20177;-74
2021/10/19 07:00:18;;;;;;;9.27;8.23;;;;;;;11.30;100.00;100951.41;5062594;28;20181;-74
2021/10/19 07:02:45;;;;;;;10.50;9.50;;;;;;;11.31;100.00;100957.69;5087158;28;20181;-74
2021/10/19 07:05:11;;;;;;;12.10;9.43;;;;;;;11.27;100.00;100962.91;5091158;28;20194;-74
2021/10/19 07:07:39;;;;;;;10.77;9.47;;;;;;;11.29;100.00;100970.84;5072866;28;20541;-74
2021/10/19 07:10:05;;;;;;;10.87;9.57;;;;;;;11.34;100.00;100959.81;5091236;28;20716;-74
2021/10/19 07:12:31;;;;;;;9.90;8.93;;;;;;;11.45;100.00;100974.09;5091082;28;20249;-74
2021/10/19 07:14:56;;;;;;;10.37;8.60;;;;;;;11.43;100.00;100963.47;5090553;28;20632;-74
2021/10/19 07:17:21;;;;;;;9.07;8.17;;;;;;;11.52;100.00;100974.47;5072239;28;20178;-75
2021/10/19 07:19:47;;;;;;;10.40;9.37;;;;;;;11.37;100.00;100975.59;5073134;28;20260;-74
2021/10/19 07:22:17;;;;;;;10.63;9.23;;;;;;;11.43;100.00;100976.28;5091393;28;20170;-73
2021/10/19 07:24:42;;;;;;;9.33;8.33;;;;;;;11.50;100.00;100963.03;5090743;28;20261;-73
2021/10/19 07:27:08;;;;;;;9.37;8.43;;;;;;;11.54;100.00;100966.78;5091229;28;20257;-73
2021/10/19 07:29:34;;;;;;;13.83;9.97;;;;;;;11.58;100.00;100946.72;5090897;28;20166;-73
2021/10/19 07:31:59;;;;;;;11.00;9.87;;;;;;;11.69;100.00;100947.28;5072784;28;20235;-72
2021/10/19 07:34:24;;;;;;;10.30;8.83;;;;;;;11.68;100.00;100950.34;5072463;28;20260;-73
2021/10/19 07:36:52;;;;;;;12.20;8.53;;;;;;;11.76;100.00;100947.72;5090931;28;20177;-73
2021/10/19 07:39:18;;;;;;;9.47;8.50;;;;;;;11.80;100.00;100947.94;5090584;28;20429;-73
2021/10/19 07:41:43;;;;;;;8.53;7.73;;;;;;;11.83;100.00;100939.91;5089866;28;20174;-73
2021/10/19 07:44:09;;;;;;;10.40;9.40;;;;;;;11.94;100.00;100931.47;5072158;28;20671;-73
2021/10/19 07:46:35;;;;;;;9.30;8.40;;;;;;;11.97;100.00;100926.19;5090489;28;20202;-72
2021/10/19 07:49:01;;;;;;;9.67;7.40;;;;;;;12.02;100.00;100944.44;5090624;28;20170;-73
2021/10/19 07:51:26;;;;;;;9.43;7.97;;;;;;;12.00;100.00;100949.41;5072560;28;20234;-73
2021/10/19 07:53:52;;;;;;;4.77;3.07;;;;;;;11.93;100.00;100951.75;5072407;28;20319;-73
2021/10/19 07:56:20;;;;;;;7.53;6.83;;;;;;;11.85;100.00;100937.66;5072643;28;20206;-73
2021/10/19 07:58:47;;;;;;;6.40;5.57;;;;;;;11.81;100.00;100941.34;5090759;28;20636;-73
2021/10/19 08:01:12;;;;;;;8.20;7.40;;;;;;;11.79;100.00;100908.78;5072496;28;20165;-73
2021/10/19 08:03:38;;;;;;;6.33;5.77;;;;;;;11.79;100.00;100919.75;5090802;28;20176;-73
2021/10/19 08:06:03;;;;;;;6.20;5.60;;;;;;;11.80;100.00;100921.38;5090102;28;20204;-73
2021/10/19 08:08:28;;;;;;;9.10;8.07;;;;;;;11.81;100.00;100922.97;5090485;28;20178;-74
2021/10/19 08:10:54;;;;;;;9.07;7.73;;;;;;;11.84;100.00;100927.03;5072258;28;20162;-73
2021/10/19 08:13:19;;;;;;;10.47;7.17;;;;;;;11.84;100.00;100941.53;5072393;28;20176;-73
2021/10/19 08:15:46;;;;;;;10.23;9.00;;;;;;;11.82;100.00;100934.75;5072326;28;20248;-73
2021/10/19 08:18:12;;;;;;;8.83;5.63;;;;;;;11.82;100.00;100927.34;5072047;28;20169;-72
2021/10/19 08:20:38;;;;;;;7.17;6.47;;;;;;;11.79;100.00;100929.88;5090092;28;20230;-72
2021/10/19 08:23:04;;;;;;;7.30;6.53;;;;;;;11.78;100.00;100930.97;5067185;28;20166;-72
2021/10/19 08:25:30;;;;;;;9.67;8.60;;;;;;;11.77;100.00;100930.16;5078115;28;20274;-72
2021/10/19 08:27:56;;;;;;;9.90;7.63;;;;;;;11.81;100.00;100933.94;5088960;28;20174;-72
2021/10/19 08:30:22;;;;;;;8.87;7.40;;;;;;;11.81;100.00;100935.84;5088105;28;20182;-72
2021/10/19 08:32:49;;;;;;;8.30;6.67;;;;;;;11.78;100.00;100934.53;5086820;28;20245;-73
2021/10/19 08:35:15;;;;;;;8.83;7.73;;;;;;;11.79;100.00;100936.16;5089135;28;20196;-72
2021/10/19 08:37:42;;;;;;;9.47;8.47;;;;;;;11.84;100.00;100933.31;5069120;28;20224;-72
2021/10/19 08:40:08;;;;;;;9.63;8.00;;;;;;;11.91;100.00;100927.44;5090341;28;20424;-72
2021/10/19 08:42:41;;;;;;;7.73;6.67;;;;;;;12.02;100.00;100936.22;5088311;28;20185;-73
2021/10/19 08:45:07;;;;;;;7.57;6.83;;;;;;;12.09;100.00;100945.63;5089295;28;20233;-72
2021/10/19 08:47:34;;;;;;;11.07;7.70;;;;;;;12.19;100.00;100936.38;5068674;28;20223;-72
2021/10/19 08:49:59;;;;;;;8.00;7.20;;;;;;;12.23;100.00;100929.16;5083194;28;20185;-72
2021/10/19 08:52:24;;;;;;;8.70;7.80;;;;;;;12.28;100.00;100930.94;5088627;28;20541;-73
2021/10/19 08:54:50;;;;;;;8.33;6.83;;;;;;;12.31;100.00;100919.38;5092973;28;20186;-72
2021/10/19 08:57:16;;;;;;;9.10;8.17;;;;;;;12.36;100.00;100931.03;5093811;28;20205;-72
2021/10/19 08:59:44;;;;;;;8.60;7.33;;;;;;;12.45;100.00;100934.66;5093440;28;20201;-72
2021/10/19 09:02:10;;;;;;;10.27;8.23;;;;;;;12.48;100.00;100925.78;5092424;28;20265;-72
2021/10/19 09:04:35;;;;;;;6.10;5.37;;;;;;;12.53;100.00;100930.31;5092077;28;20264;-72
2021/10/19 09:07:01;;;;;;;7.20;6.00;;;;;;;12.57;100.00;100931.31;5092369;28;20189;-72
2021/10/19 09:09:26;;;;;;;6.23;4.77;;;;;;;12.58;100.00;100927.44;5093169;28;20587;-72
2021/10/19 09:11:54;;;;;;;8.37;7.47;;;;;;;12.58;100.00;100927.44;5093523;28;20185;-72
2021/10/19 09:14:27;;;;;;;7.70;6.90;;;;;;;12.62;100.00;100906.53;5081285;28;20545;-73
2021/10/19 09:16:53;;;;;;;11.07;7.47;;;;;;;12.66;100.00;100895.75;5078902;28;20216;-72
2021/10/19 09:19:20;;;;;;;7.10;6.13;;;;;;;12.76;100.00;100914.69;5093218;28;20253;-72
2021/10/19 09:21:46;;;;;;;8.53;7.10;;;;;;;12.81;99.83;100898.88;5088841;28;20373;-72
2021/10/19 09:24:22;;;;;;;7.17;6.17;;;;;;;12.89;99.69;100900.06;5093590;28;20166;-72
2021/10/19 09:26:56;;;;;;;8.50;7.00;;;;;;;12.95;99.98;100900.72;5073172;28;20198;-72
2021/10/19 09:29:24;;;;;;;6.90;5.73;;;;;;;13.05;100.00;100898.53;5081903;28;20637;-72
2021/10/19 09:31:51;;;;;;;7.93;6.47;;;;;;;13.10;99.25;100912.09;5093663;28;20178;-73
2021/10/19 09:34:17;;;;;;;9.83;6.97;;;;;;;13.16;99.42;100895.47;5073794;28;20625;-73
2021/10/19 09:36:42;;;;;;;5.70;4.90;;;;;;;13.23;99.18;100899.41;5092740;28;20184;-73
2021/10/19 09:39:07;;;;;;;6.93;6.33;;;;;;;13.32;99.14;100900.25;5091669;28;20230;-74
2021/10/19 09:41:46;;;;;;;5.77;5.13;;;;;;;13.44;98.84;100885.91;5090687;28;20186;-73
2021/10/19 09:44:16;;;;;;;2.03;1.90;;;;;;;13.42;97.71;100885.41;5075823;28;20178;-73
2021/10/19 09:46:42;;;;;;;3.43;3.10;;;;;;;13.49;98.23;100884.97;5089916;28;20294;-72
2021/10/19 09:49:08;;;;;;;8.43;7.53;;;;;;;13.52;97.87;100884.31;5092131;28;20300;-73
2021/10/19 09:51:37;;;;;;;5.40;4.90;;;;;;;13.73;99.13;100909.19;5073214;28;20239;-73
2021/10/19 09:54:08;;;;;;;8.37;6.53;;;;;;;13.73;97.70;100904.53;5092444;28;20174;-74
2021/10/19 09:56:38;;;;;;;7.23;5.10;;;;;;;13.78;97.96;100917.31;5092691;28;20241;-73
2021/10/19 09:59:05;;;;;;;5.63;3.93;;;;;;;13.70;96.63;100908.72;5091576;28;20205;-72
2021/10/19 10:01:35;;;;;;;6.83;6.23;;;;;;;13.51;97.62;100902.72;5071069;28;20181;-73
2021/10/19 10:04:01;;;;;;;6.97;6.33;;;;;;;13.53;97.97;100910.63;5092262;28;20642;-73
2021/10/19 10:06:28;;;;;;;6.73;5.97;;;;;;;13.46;98.43;100899.34;5091254;28;20304;-73
2021/10/19 10:08:55;;;;;;;8.60;7.80;;;;;;;13.34;98.77;100887.03;5092156;28;20170;-73
2021/10/19 10:11:21;;;;;;;5.77;5.10;;;;;;;13.38;100.00;100888.00;5092317;28;20265;-69
2021/10/19 10:14:03;;;;;;;5.60;5.10;;;;;;;13.33;99.96;100885.41;5086047;28;20260;-74
2021/10/19 10:16:40;;;;;;;6.73;5.63;;;;;;;13.40;100.00;100890.41;5090856;28;20202;-73
2021/10/19 10:19:15;;;;;;;3.97;3.57;;;;;;;13.45;100.00;100883.97;5073260;28;20183;-74
2021/10/19 10:21:53;;;;;;;5.87;5.03;;;;;;;13.46;100.00;100889.16;5091773;28;20173;-74
2021/10/19 10:24:32;;;;;;;4.10;3.70;;;;;;;13.48;100.00;100886.91;5089526;28;20180;-74
2021/10/19 10:27:09;;;;;;;5.30;4.80;;;;;;;13.42;100.00;100892.84;5072222;28;20201;-74
2021/10/19 10:29:43;;;;;;;5.70;4.50;;;;;;;13.38;100.00;100890.75;5086936;28;20185;-73
2021/10/19 10:32:29;;;;;;;4.87;4.17;;;;;;;13.36;100.00;100883.97;5071104;28;20182;-73
2021/10/19 10:35:05;;;;;;;6.27;4.03;;;;;;;13.38;100.00;100873.47;5071220;28;20204;-73
2021/10/19 10:37:51;;;;;;;6.37;5.57;;;;;;;13.38;100.00;100870.72;5090128;28;20196;-74
2021/10/19 10:40:31;;;;;;;5.93;3.00;;;;;;;13.42;100.00;100857.97;5091613;28;20158;-74
2021/10/19 10:42:58;;;;;;;4.87;4.27;;;;;;;13.46;100.00;100858.16;5072541;28;20280;-74
2021/10/19 10:45:34;;;;;;;4.30;3.90;;;;;;;13.46;100.00;100853.47;5091504;28;20707;-73
2021/10/19 10:48:01;;;;;;;5.63;5.03;;;;;;;13.51;100.00;100842.31;5091270;28;20170;-74
2021/10/19 10:50:28;;;;;;;4.20;3.90;;;;;;;13.58;100.00;100842.66;5091456;28;20174;-73
2021/10/19 10:53:02;;;;;;;4.67;4.23;;;;;;;13.61;100.00;100835.72;5088663;28;20638;-74
2021/10/19 10:55:32;;;;;;;2.33;2.13;;;;;;;13.66;100.00;100833.63;5090866;28;20189;-73
2021/10/19 10:57:58;;;;;;;1.27;1.27;;;;;;;13.67;100.00;100824.25;5090004;28;20621;-74
2021/10/19 11:00:25;;;;;;;2.83;2.63;;;;;;;13.66;100.00;100821.81;5091047;28;20235;-74
2021/10/19 11:03:05;;;;;;;3.03;2.73;;;;;;;13.67;100.00;100818.75;5088677;28;20182;-74
2021/10/19 11:05:30;;;;;;;5.27;3.73;;;;;;;13.69;100.00;100821.97;5072145;28;20746;-74
2021/10/19 11:07:57;;;;;;;2.33;2.07;;;;;;;13.71;100.00;100821.66;5091130;28;20174;-74
2021/10/19 11:10:22;;;;;;;3.00;2.80;;;;;;;13.68;100.00;100816.81;5090749;28;20201;-74